Aviation Digital Data Service (ADDS)

Output produced by METARs form (0740 UTC 31 October 2014)
found at http://www.aviationweather.gov/adds/metars/
 
KSAV 310730Z AUTO 00000KT 2SM BR CLR 13/11 A2989 RMK AO2 TSNO